sensor_id;sensor_type;location;lat;lon;timestamp;pressure;altitude;pressure_sealevel;temperature;humidity
7433;BME280;32233;49.500;7.764;2023-10-08T00:00:48;99376.34;;;13.31;100.00
7433;BME280;32233;49.500;7.764;2023-10-08T00:03:20;99373.69;;;13.31;100.00
7433;BME280;32233;49.500;7.764;2023-10-08T00:05:47;99369.69;;;13.48;100.00
7433;BME280;32233;49.500;7.764;2023-10-08T00:08:16;99369.84;;;13.47;100.00
7433;BME280;32233;49.500;7.764;2023-10-08T00:10:43;99372.13;;;13.43;100.00
7433;BME280;32233;49.500;7.764;2023-10-08T00:13:12;99375.97;;;13.41;100.00
7433;BME280;32233;49.500;7.764;2023-10-08T00:15:39;99378.78;;;13.32;100.00
7433;BME280;32233;49.500;7.764;2023-10-08T00:18:24;99391.44;;;13.30;100.00
7433;BME280;32233;49.500;7.764;2023-10-08T00:20:50;99396.88;;;13.22;100.00
7433;BME280;32233;49.500;7.764;2023-10-08T00:23:33;99396.50;;;13.25;100.00
7433;BME280;32233;49.500;7.764;2023-10-08T00:26:01;99390.44;;;13.31;100.00
7433;BME280;32233;49.500;7.764;2023-10-08T00:28:31;99393.53;;;13.35;100.00
7433;BME280;32233;49.500;7.764;2023-10-08T00:30:58;99387.56;;;13.33;100.00
7433;BME280;32233;49.500;7.764;2023-10-08T00:33:32;99387.63;;;13.40;100.00
7433;BME280;32233;49.500;7.764;2023-10-08T00:35:58;99382.09;;;13.41;100.00
7433;BME280;32233;49.500;7.764;2023-10-08T00:38:25;99382.69;;;13.36;100.00
7433;BME280;32233;49.500;7.764;2023-10-08T00:40:58;99387.72;;;13.25;100.00
7433;BME280;32233;49.500;7.764;2023-10-08T00:45:58;99375.00;;;13.20;100.00
7433;BME280;32233;49.500;7.764;2023-10-08T00:48:26;99371.53;;;13.20;100.00
7433;BME280;32233;49.500;7.764;2023-10-08T00:50:59;99366.00;;;13.14;100.00
7433;BME280;32233;49.500;7.764;2023-10-08T00:53:44;99376.38;;;13.09;100.00
7433;BME280;32233;49.500;7.764;2023-10-08T00:56:11;99372.09;;;13.08;100.00
7433;BME280;32233;49.500;7.764;2023-10-08T00:58:42;99371.63;;;12.98;100.00
7433;BME280;32233;49.500;7.764;2023-10-08T01:01:13;99376.97;;;12.77;100.00
7433;BME280;32233;49.500;7.764;2023-10-08T01:03:43;99375.47;;;12.68;100.00
7433;BME280;32233;49.500;7.764;2023-10-08T01:06:11;99377.31;;;12.67;100.00
7433;BME280;32233;49.500;7.764;2023-10-08T01:08:38;99380.69;;;12.82;100.00
7433;BME280;32233;49.500;7.764;2023-10-08T01:11:18;99370.69;;;12.84;100.00
7433;BME280;32233;49.500;7.764;2023-10-08T01:13:46;99378.31;;;12.66;100.00
7433;BME280;32233;49.500;7.764;2023-10-08T01:16:13;99378.06;;;12.61;100.00
7433;BME280;32233;49.500;7.764;2023-10-08T01:18:40;99378.28;;;12.38;100.00
7433;BME280;32233;49.500;7.764;2023-10-08T01:21:09;99376.34;;;12.25;100.00
7433;BME280;32233;49.500;7.764;2023-10-08T01:23:38;99384.22;;;12.19;100.00
7433;BME280;32233;49.500;7.764;2023-10-08T01:26:05;99386.34;;;12.08;100.00
7433;BME280;32233;49.500;7.764;2023-10-08T01:28:38;99390.56;;;12.03;100.00
7433;BME280;32233;49.500;7.764;2023-10-08T01:31:06;99387.47;;;11.99;100.00
7433;BME280;32233;49.500;7.764;2023-10-08T01:33:33;99400.53;;;12.01;100.00
7433;BME280;32233;49.500;7.764;2023-10-08T01:36:13;99393.16;;;11.96;100.00
7433;BME280;32233;49.500;7.764;2023-10-08T01:38:40;99395.34;;;11.93;100.00
7433;BME280;32233;49.500;7.764;2023-10-08T01:41:09;99403.19;;;12.01;100.00
7433;BME280;32233;49.500;7.764;2023-10-08T01:43:46;99407.13;;;11.90;100.00
7433;BME280;32233;49.500;7.764;2023-10-08T01:46:13;99404.50;;;11.90;100.00
7433;BME280;32233;49.500;7.764;2023-10-08T01:48:42;99401.22;;;11.88;100.00
7433;BME280;32233;49.500;7.764;2023-10-08T01:51:11;99398.44;;;11.81;100.00
7433;BME280;32233;49.500;7.764;2023-10-08T01:53:45;99409.59;;;11.77;100.00
7433;BME280;32233;49.500;7.764;2023-10-08T01:56:12;99409.78;;;11.75;100.00
7433;BME280;32233;49.500;7.764;2023-10-08T01:58:39;99412.81;;;11.72;100.00
7433;BME280;32233;49.500;7.764;2023-10-08T02:01:06;99410.53;;;11.69;100.00
7433;BME280;32233;49.500;7.764;2023-10-08T02:03:38;99407.63;;;11.64;100.00
7433;BME280;32233;49.500;7.764;2023-10-08T02:06:06;99409.91;;;11.52;100.00
7433;BME280;32233;49.500;7.764;2023-10-08T02:08:35;99418.00;;;11.51;100.00
7433;BME280;32233;49.500;7.764;2023-10-08T02:11:03;99419.22;;;11.48;100.00
7433;BME280;32233;49.500;7.764;2023-10-08T02:13:30;99419.84;;;11.50;100.00
7433;BME280;32233;49.500;7.764;2023-10-08T02:16:01;99420.50;;;11.52;100.00
7433;BME280;32233;49.500;7.764;2023-10-08T02:18:28;99417.66;;;11.54;100.00
7433;BME280;32233;49.500;7.764;2023-10-08T02:20:58;99422.69;;;11.49;100.00
7433;BME280;32233;49.500;7.764;2023-10-08T02:23:25;99418.22;;;11.49;100.00
7433;BME280;32233;49.500;7.764;2023-10-08T02:25:52;99419.78;;;11.44;100.00
7433;BME280;32233;49.500;7.764;2023-10-08T02:28:18;99421.69;;;11.35;100.00
7433;BME280;32233;49.500;7.764;2023-10-08T02:30:47;99417.94;;;11.29;100.00
7433;BME280;32233;49.500;7.764;2023-10-08T02:33:13;99420.13;;;11.40;100.00
7433;BME280;32233;49.500;7.764;2023-10-08T02:35:42;99422.31;;;11.37;100.00
7433;BME280;32233;49.500;7.764;2023-10-08T02:38:16;99422.38;;;11.14;100.00
7433;BME280;32233;49.500;7.764;2023-10-08T02:40:44;99431.06;;;11.08;100.00
7433;BME280;32233;49.500;7.764;2023-10-08T02:43:15;99433.78;;;11.00;100.00
7433;BME280;32233;49.500;7.764;2023-10-08T02:45:43;99432.63;;;11.02;100.00
7433;BME280;32233;49.500;7.764;2023-10-08T02:48:15;99436.16;;;10.95;100.00
7433;BME280;32233;49.500;7.764;2023-10-08T02:50:43;99443.06;;;10.96;100.00
7433;BME280;32233;49.500;7.764;2023-10-08T02:53:13;99447.56;;;10.95;100.00
7433;BME280;32233;49.500;7.764;2023-10-08T02:55:45;99442.00;;;10.90;100.00
7433;BME280;32233;49.500;7.764;2023-10-08T02:58:14;99441.88;;;10.83;100.00
7433;BME280;32233;49.500;7.764;2023-10-08T03:00:42;99448.69;;;10.78;100.00
7433;BME280;32233;49.500;7.764;2023-10-08T03:03:09;99453.34;;;10.76;100.00
7433;BME280;32233;49.500;7.764;2023-10-08T03:05:46;99451.41;;;10.70;100.00
7433;BME280;32233;49.500;7.764;2023-10-08T03:08:14;99443.63;;;10.68;100.00
7433;BME280;32233;49.500;7.764;2023-10-08T03:10:51;99443.22;;;10.79;100.00
7433;BME280;32233;49.500;7.764;2023-10-08T03:13:29;99453.44;;;10.82;100.00
7433;BME280;32233;49.500;7.764;2023-10-08T03:15:56;99446.75;;;10.72;100.00
7433;BME280;32233;49.500;7.764;2023-10-08T03:18:29;99454.22;;;10.68;100.00
7433;BME280;32233;49.500;7.764;2023-10-08T03:21:10;99442.53;;;10.62;100.00
7433;BME280;32233;49.500;7.764;2023-10-08T03:24:09;99440.44;;;10.58;100.00
7433;BME280;32233;49.500;7.764;2023-10-08T03:26:58;99432.31;;;10.59;100.00
7433;BME280;32233;49.500;7.764;2023-10-08T03:29:44;99438.75;;;10.57;100.00
7433;BME280;32233;49.500;7.764;2023-10-08T03:32:14;99444.09;;;10.49;100.00
7433;BME280;32233;49.500;7.764;2023-10-08T03:34:48;99443.53;;;10.38;100.00
7433;BME280;32233;49.500;7.764;2023-10-08T03:37:22;99445.22;;;10.31;100.00
7433;BME280;32233;49.500;7.764;2023-10-08T03:39:56;99429.84;;;10.35;100.00
7433;BME280;32233;49.500;7.764;2023-10-08T03:42:41;99434.44;;;10.41;100.00
7433;BME280;32233;49.500;7.764;2023-10-08T03:45:08;99433.16;;;10.37;100.00
7433;BME280;32233;49.500;7.764;2023-10-08T03:47:38;99441.28;;;10.27;100.00
7433;BME280;32233;49.500;7.764;2023-10-08T03:50:06;99440.16;;;10.22;100.00
7433;BME280;32233;49.500;7.764;2023-10-08T03:52:34;99437.84;;;10.18;100.00
7433;BME280;32233;49.500;7.764;2023-10-08T03:55:06;99441.00;;;10.14;100.00
7433;BME280;32233;49.500;7.764;2023-10-08T03:57:45;99442.00;;;10.13;100.00
7433;BME280;32233;49.500;7.764;2023-10-08T04:00:14;99437.84;;;10.18;100.00
7433;BME280;32233;49.500;7.764;2023-10-08T04:02:45;99442.47;;;10.25;100.00
7433;BME280;32233;49.500;7.764;2023-10-08T04:05:35;99438.28;;;10.30;100.00
7433;BME280;32233;49.500;7.764;2023-10-08T04:08:26;99447.88;;;10.31;100.00
7433;BME280;32233;49.500;7.764;2023-10-08T04:11:21;99452.34;;;10.31;100.00
7433;BME280;32233;49.500;7.764;2023-10-08T04:14:02;99458.63;;;10.30;100.00
7433;BME280;32233;49.500;7.764;2023-10-08T04:16:29;99464.06;;;10.28;100.00
7433;BME280;32233;49.500;7.764;2023-10-08T04:18:56;99458.34;;;10.25;100.00
7433;BME280;32233;49.500;7.764;2023-10-08T04:21:23;99462.72;;;10.24;100.00
7433;BME280;32233;49.500;7.764;2023-10-08T04:23:56;99459.16;;;10.25;100.00
7433;BME280;32233;49.500;7.764;2023-10-08T04:26:24;99458.34;;;10.25;100.00
7433;BME280;32233;49.500;7.764;2023-10-08T04:28:55;99475.47;;;10.29;100.00
7433;BME280;32233;49.500;7.764;2023-10-08T04:31:24;99475.00;;;10.25;100.00
7433;BME280;32233;49.500;7.764;2023-10-08T04:33:55;99475.31;;;10.22;100.00
7433;BME280;32233;49.500;7.764;2023-10-08T04:36:26;99467.13;;;10.09;100.00
7433;BME280;32233;49.500;7.764;2023-10-08T04:38:53;99464.50;;;10.09;100.00
7433;BME280;32233;49.500;7.764;2023-10-08T04:41:21;99465.94;;;10.11;100.00
7433;BME280;32233;49.500;7.764;2023-10-08T04:43:54;99465.56;;;10.23;100.00
7433;BME280;32233;49.500;7.764;2023-10-08T04:46:22;99464.44;;;10.25;100.00
7433;BME280;32233;49.500;7.764;2023-10-08T04:49:14;99463.63;;;10.25;100.00
7433;BME280;32233;49.500;7.764;2023-10-08T04:52:04;99461.63;;;10.18;100.00
7433;BME280;32233;49.500;7.764;2023-10-08T04:54:42;99461.31;;;10.13;100.00
7433;BME280;32233;49.500;7.764;2023-10-08T04:57:18;99461.66;;;10.10;100.00
7433;BME280;32233;49.500;7.764;2023-10-08T04:59:49;99459.25;;;10.01;100.00
7433;BME280;32233;49.500;7.764;2023-10-08T05:02:24;99460.41;;;9.98;100.00
7433;BME280;32233;49.500;7.764;2023-10-08T05:05:11;99456.75;;;9.99;100.00
7433;BME280;32233;49.500;7.764;2023-10-08T05:07:37;99459.91;;;9.95;100.00
7433;BME280;32233;49.500;7.764;2023-10-08T05:10:07;99450.53;;;9.92;100.00
7433;BME280;32233;49.500;7.764;2023-10-08T05:12:34;99454.34;;;9.89;100.00
7433;BME280;32233;49.500;7.764;2023-10-08T05:15:04;99448.06;;;9.90;100.00
7433;BME280;32233;49.500;7.764;2023-10-08T05:17:41;99456.97;;;9.89;100.00
7433;BME280;32233;49.500;7.764;2023-10-08T05:20:18;99461.25;;;9.90;100.00
7433;BME280;32233;49.500;7.764;2023-10-08T05:23:09;99460.59;;;9.97;100.00
7433;BME280;32233;49.500;7.764;2023-10-08T05:25:52;99460.59;;;9.97;100.00
7433;BME280;32233;49.500;7.764;2023-10-08T05:28:32;99461.88;;;10.01;100.00
7433;BME280;32233;49.500;7.764;2023-10-08T05:31:08;99454.75;;;10.09;100.00
7433;BME280;32233;49.500;7.764;2023-10-08T05:33:42;99457.16;;;10.19;100.00
7433;BME280;32233;49.500;7.764;2023-10-08T05:36:27;99475.00;;;10.25;100.00
7433;BME280;32233;49.500;7.764;2023-10-08T05:39:01;99479.47;;;10.25;100.00
7433;BME280;32233;49.500;7.764;2023-10-08T05:41:42;99491.97;;;10.31;100.00
7433;BME280;32233;49.500;7.764;2023-10-08T05:44:18;99477.94;;;10.30;100.00
7433;BME280;32233;49.500;7.764;2023-10-08T05:46:45;99485.56;;;10.25;100.00
7433;BME280;32233;49.500;7.764;2023-10-08T05:49:33;99479.47;;;10.16;100.00
7433;BME280;32233;49.500;7.764;2023-10-08T05:52:00;99469.09;;;10.07;100.00
7433;BME280;32233;49.500;7.764;2023-10-08T05:54:31;99477.56;;;10.02;100.00
7433;BME280;32233;49.500;7.764;2023-10-08T05:59:39;99485.00;;;9.99;100.00
7433;BME280;32233;49.500;7.764;2023-10-08T06:02:20;99489.13;;;10.01;100.00
7433;BME280;32233;49.500;7.764;2023-10-08T06:05:07;99493.38;;;10.10;100.00
7433;BME280;32233;49.500;7.764;2023-10-08T06:07:42;99489.19;;;10.16;100.00
7433;BME280;32233;49.500;7.764;2023-10-08T06:15:37;99496.50;;;10.14;100.00
7433;BME280;32233;49.500;7.764;2023-10-08T06:18:19;99497.78;;;10.18;100.00
7433;BME280;32233;49.500;7.764;2023-10-08T06:20:46;99499.09;;;10.22;100.00
7433;BME280;32233;49.500;7.764;2023-10-08T06:23:15;99506.19;;;10.30;100.00
7433;BME280;32233;49.500;7.764;2023-10-08T06:25:53;99503.34;;;10.31;100.00
7433;BME280;32233;49.500;7.764;2023-10-08T06:28:42;99505.72;;;10.26;100.00
7433;BME280;32233;49.500;7.764;2023-10-08T06:31:09;99505.19;;;10.23;100.00
7433;BME280;32233;49.500;7.764;2023-10-08T06:33:44;99497.59;;;10.20;100.00
7433;BME280;32233;49.500;7.764;2023-10-08T06:36:11;99503.25;;;10.25;100.00
7433;BME280;32233;49.500;7.764;2023-10-08T06:38:39;99499.72;;;10.32;100.00
7433;BME280;32233;49.500;7.764;2023-10-08T06:41:07;99503.31;;;10.39;100.00
7433;BME280;32233;49.500;7.764;2023-10-08T06:43:50;99510.19;;;10.49;100.00
7433;BME280;32233;49.500;7.764;2023-10-08T06:46:29;99527.47;;;10.59;100.00
7433;BME280;32233;49.500;7.764;2023-10-08T06:48:59;99523.63;;;10.70;100.00
7433;BME280;32233;49.500;7.764;2023-10-08T06:51:29;99511.97;;;10.79;100.00
7433;BME280;32233;49.500;7.764;2023-10-08T06:53:57;99501.88;;;10.83;100.00
7433;BME280;32233;49.500;7.764;2023-10-08T06:56:28;99502.81;;;10.90;100.00
7433;BME280;32233;49.500;7.764;2023-10-08T06:58:54;99493.56;;;11.09;100.00
7433;BME280;32233;49.500;7.764;2023-10-08T07:01:21;99485.56;;;11.32;100.00
7433;BME280;32233;49.500;7.764;2023-10-08T07:03:48;99481.56;;;11.51;100.00
7433;BME280;32233;49.500;7.764;2023-10-08T07:06:16;99481.84;;;11.56;100.00
7433;BME280;32233;49.500;7.764;2023-10-08T07:08:59;99479.94;;;11.64;100.00
7433;BME280;32233;49.500;7.764;2023-10-08T07:11:26;99475.28;;;11.81;100.00
7433;BME280;32233;49.500;7.764;2023-10-08T07:13:53;99470.97;;;11.95;100.00
7433;BME280;32233;49.500;7.764;2023-10-08T07:16:20;99467.94;;;12.13;100.00
7433;BME280;32233;49.500;7.764;2023-10-08T07:18:47;99460.38;;;12.31;100.00
7433;BME280;32233;49.500;7.764;2023-10-08T07:21:21;99460.41;;;12.53;100.00
7433;BME280;32233;49.500;7.764;2023-10-08T07:24:13;99462.75;;;12.62;100.00
7433;BME280;32233;49.500;7.764;2023-10-08T07:26:44;99460.59;;;12.73;100.00
7433;BME280;32233;49.500;7.764;2023-10-08T07:29:15;99444.25;;;12.91;100.00
7433;BME280;32233;49.500;7.764;2023-10-08T07:31:46;99449.97;;;12.94;100.00
7433;BME280;32233;49.500;7.764;2023-10-08T07:34:15;99442.41;;;12.91;100.00
7433;BME280;32233;49.500;7.764;2023-10-08T07:36:43;99446.53;;;13.00;100.00
7433;BME280;32233;49.500;7.764;2023-10-08T07:39:10;99445.81;;;13.13;100.00
7433;BME280;32233;49.500;7.764;2023-10-08T07:41:53;99444.88;;;13.49;100.00
7433;BME280;32233;49.500;7.764;2023-10-08T07:44:21;99436.50;;;13.52;100.00
7433;BME280;32233;49.500;7.764;2023-10-08T07:46:49;99447.97;;;13.59;100.00
7433;BME280;32233;49.500;7.764;2023-10-08T07:49:17;99443.72;;;13.65;100.00
7433;BME280;32233;49.500;7.764;2023-10-08T07:51:44;99450.47;;;13.67;100.00
7433;BME280;32233;49.500;7.764;2023-10-08T07:54:23;99440.69;;;13.68;100.00
7433;BME280;32233;49.500;7.764;2023-10-08T07:56:56;99440.28;;;13.71;100.00
7433;BME280;32233;49.500;7.764;2023-10-08T07:59:46;99444.38;;;13.73;100.00
7433;BME280;32233;49.500;7.764;2023-10-08T08:02:22;99448.31;;;13.84;100.00
7433;BME280;32233;49.500;7.764;2023-10-08T08:04:53;99455.09;;;14.00;100.00
7433;BME280;32233;49.500;7.764;2023-10-08T08:07:21;99453.38;;;14.27;100.00
7433;BME280;32233;49.500;7.764;2023-10-08T08:09:50;99440.50;;;14.30;100.00
7433;BME280;32233;49.500;7.764;2023-10-08T08:12:21;99438.97;;;14.08;100.00
7433;BME280;32233;49.500;7.764;2023-10-08T08:14:50;99453.88;;;13.96;100.00
7433;BME280;32233;49.500;7.764;2023-10-08T08:17:17;99449.53;;;13.81;100.00
7433;BME280;32233;49.500;7.764;2023-10-08T08:19:46;99454.63;;;13.76;100.00
7433;BME280;32233;49.500;7.764;2023-10-08T08:22:14;99451.81;;;13.91;100.00
7433;BME280;32233;49.500;7.764;2023-10-08T08:24:54;99460.31;;;14.21;100.00
7433;BME280;32233;49.500;7.764;2023-10-08T08:27:56;99451.03;;;14.78;100.00
7433;BME280;32233;49.500;7.764;2023-10-08T08:30:23;99442.81;;;15.33;100.00
7433;BME280;32233;49.500;7.764;2023-10-08T08:32:53;99440.78;;;16.00;100.00
7433;BME280;32233;49.500;7.764;2023-10-08T08:35:22;99434.03;;;16.35;100.00
7433;BME280;32233;49.500;7.764;2023-10-08T08:37:50;99434.13;;;16.16;100.00
7433;BME280;32233;49.500;7.764;2023-10-08T08:40:20;99442.88;;;15.91;100.00
7433;BME280;32233;49.500;7.764;2023-10-08T08:42:51;99445.59;;;15.71;100.00
7433;BME280;32233;49.500;7.764;2023-10-08T08:45:25;99446.06;;;15.48;100.00
7433;BME280;32233;49.500;7.764;2023-10-08T08:47:53;99453.66;;;15.38;100.00
7433;BME280;32233;49.500;7.764;2023-10-08T08:50:20;99448.31;;;15.45;100.00
7433;BME280;32233;49.500;7.764;2023-10-08T08:52:48;99447.88;;;15.54;100.00
7433;BME280;32233;49.500;7.764;2023-10-08T08:55:15;99450.75;;;15.66;100.00
7433;BME280;32233;49.500;7.764;2023-10-08T08:57:46;99451.75;;;15.78;100.00
7433;BME280;32233;49.500;7.764;2023-10-08T09:00:14;99453.81;;;15.70;100.00
7433;BME280;32233;49.500;7.764;2023-10-08T09:02:44;99454.06;;;15.48;100.00
7433;BME280;32233;49.500;7.764;2023-10-08T09:05:11;99453.84;;;15.50;100.00
7433;BME280;32233;49.500;7.764;2023-10-08T09:08:01;99452.00;;;15.50;100.00
7433;BME280;32233;49.500;7.764;2023-10-08T09:10:33;99458.97;;;15.65;100.00
7433;BME280;32233;49.500;7.764;2023-10-08T09:13:20;99457.25;;;15.90;100.00
7433;BME280;32233;49.500;7.764;2023-10-08T09:15:51;99461.91;;;16.40;100.00
7433;BME280;32233;49.500;7.764;2023-10-08T09:18:22;99460.81;;;16.54;100.00
7433;BME280;32233;49.500;7.764;2023-10-08T09:20:49;99460.34;;;16.64;100.00
7433;BME280;32233;49.500;7.764;2023-10-08T09:23:16;99458.41;;;16.77;100.00
7433;BME280;32233;49.500;7.764;2023-10-08T09:25:48;99457.72;;;16.89;100.00
7433;BME280;32233;49.500;7.764;2023-10-08T09:28:16;99453.47;;;16.81;100.00
7433;BME280;32233;49.500;7.764;2023-10-08T09:30:44;99461.38;;;16.94;100.00
7433;BME280;32233;49.500;7.764;2023-10-08T09:33:15;99453.47;;;17.06;100.00
7433;BME280;32233;49.500;7.764;2023-10-08T09:35:45;99452.31;;;17.20;100.00
7433;BME280;32233;49.500;7.764;2023-10-08T09:38:12;99443.88;;;17.23;100.00
7433;BME280;32233;49.500;7.764;2023-10-08T09:40:40;99444.75;;;17.17;100.00
7433;BME280;32233;49.500;7.764;2023-10-08T09:43:13;99438.91;;;17.02;100.00
7433;BME280;32233;49.500;7.764;2023-10-08T09:45:47;99433.50;;;16.90;100.00
7433;BME280;32233;49.500;7.764;2023-10-08T09:48:18;99436.03;;;17.03;100.00
7433;BME280;32233;49.500;7.764;2023-10-08T09:50:47;99430.69;;;17.03;100.00
7433;BME280;32233;49.500;7.764;2023-10-08T09:53:14;99431.81;;;17.14;100.00
7433;BME280;32233;49.500;7.764;2023-10-08T09:55:54;99419.59;;;17.25;100.00
7433;BME280;32233;49.500;7.764;2023-10-08T09:58:26;99431.25;;;17.30;100.00
7433;BME280;32233;49.500;7.764;2023-10-08T10:00:55;99424.06;;;17.31;100.00
7433;BME280;32233;49.500;7.764;2023-10-08T10:03:27;99425.91;;;17.30;100.00
7433;BME280;32233;49.500;7.764;2023-10-08T10:05:55;99426.81;;;17.24;100.00
7433;BME280;32233;49.500;7.764;2023-10-08T10:08:28;99430.97;;;17.39;100.00
7433;BME280;32233;49.500;7.764;2023-10-08T10:11:02;99430.59;;;17.53;100.00
7433;BME280;32233;49.500;7.764;2023-10-08T10:13:35;99430.34;;;17.80;100.00
7433;BME280;32233;49.500;7.764;2023-10-08T10:16:09;99435.66;;;17.98;100.00
7433;BME280;32233;49.500;7.764;2023-10-08T10:18:36;99432.53;;;18.01;100.00
7433;BME280;32233;49.500;7.764;2023-10-08T10:23:41;99421.03;;;18.31;100.00
7433;BME280;32233;49.500;7.764;2023-10-08T10:26:29;99417.56;;;18.84;100.00
7433;BME280;32233;49.500;7.764;2023-10-08T10:31:47;99411.63;;;18.70;100.00
7433;BME280;32233;49.500;7.764;2023-10-08T10:34:24;99411.06;;;19.15;100.00
7433;BME280;32233;49.500;7.764;2023-10-08T10:36:55;99421.06;;;19.43;100.00
7433;BME280;32233;49.500;7.764;2023-10-08T10:39:26;99414.13;;;19.59;100.00
7433;BME280;32233;49.500;7.764;2023-10-08T10:41:54;99410.31;;;19.67;100.00
7433;BME280;32233;49.500;7.764;2023-10-08T10:44:29;99411.13;;;19.67;99.42
7433;BME280;32233;49.500;7.764;2023-10-08T10:46:59;99406.69;;;19.73;98.93
7433;BME280;32233;49.500;7.764;2023-10-08T10:49:48;99409.03;;;19.69;98.29
7433;BME280;32233;49.500;7.764;2023-10-08T10:52:20;99408.41;;;19.79;96.17
7433;BME280;32233;49.500;7.764;2023-10-08T10:55:13;99395.91;;;19.96;96.31
7433;BME280;32233;49.500;7.764;2023-10-08T10:57:53;99398.63;;;20.13;94.16
7433;BME280;32233;49.500;7.764;2023-10-08T11:00:24;99406.38;;;20.55;88.89
7433;BME280;32233;49.500;7.764;2023-10-08T11:03:02;99402.47;;;20.34;91.02
7433;BME280;32233;49.500;7.764;2023-10-08T11:05:31;99396.94;;;20.41;91.04
7433;BME280;32233;49.500;7.764;2023-10-08T11:08:00;99393.06;;;20.48;89.85
7433;BME280;32233;49.500;7.764;2023-10-08T11:10:35;99394.59;;;20.44;89.05
7433;BME280;32233;49.500;7.764;2023-10-08T11:13:08;99394.63;;;20.61;92.72
7433;BME280;32233;49.500;7.764;2023-10-08T11:15:45;99386.41;;;20.85;90.43
7433;BME280;32233;49.500;7.764;2023-10-08T11:18:17;99387.31;;;20.90;90.20
7433;BME280;32233;49.500;7.764;2023-10-08T11:20:44;99381.44;;;20.93;87.64
7433;BME280;32233;49.500;7.764;2023-10-08T11:26:02;99378.69;;;20.71;88.21
7433;BME280;32233;49.500;7.764;2023-10-08T11:28:31;99374.44;;;20.92;87.12
7433;BME280;32233;49.500;7.764;2023-10-08T11:31:04;99374.28;;;20.99;85.87
7433;BME280;32233;49.500;7.764;2023-10-08T11:33:36;99379.41;;;21.00;82.97
7433;BME280;32233;49.500;7.764;2023-10-08T11:36:05;99376.84;;;21.27;82.20
7433;BME280;32233;49.500;7.764;2023-10-08T11:38:40;99382.94;;;21.40;79.63
7433;BME280;32233;49.500;7.764;2023-10-08T11:41:15;99371.53;;;21.33;79.62
7433;BME280;32233;49.500;7.764;2023-10-08T11:46:23;99371.50;;;21.49;81.47
7433;BME280;32233;49.500;7.764;2023-10-08T11:48:52;99372.09;;;21.79;80.76
7433;BME280;32233;49.500;7.764;2023-10-08T11:51:19;99370.97;;;21.96;78.24
7433;BME280;32233;49.500;7.764;2023-10-08T11:53:51;99377.75;;;22.04;75.01
7433;BME280;32233;49.500;7.764;2023-10-08T11:56:18;99370.34;;;21.89;76.55
7433;BME280;32233;49.500;7.764;2023-10-08T11:58:49;99361.69;;;21.60;76.75
7433;BME280;32233;49.500;7.764;2023-10-08T12:01:17;99368.28;;;21.96;78.02
7433;BME280;32233;49.500;7.764;2023-10-08T12:03:47;99356.78;;;22.65;73.42
7433;BME280;32233;49.500;7.764;2023-10-08T12:06:16;99358.16;;;22.68;73.03
7433;BME280;32233;49.500;7.764;2023-10-08T12:08:49;99358.59;;;22.22;75.62
7433;BME280;32233;49.500;7.764;2023-10-08T12:11:20;99354.81;;;21.96;75.84
7433;BME280;32233;49.500;7.764;2023-10-08T12:13:49;99359.47;;;22.06;79.04
7433;BME280;32233;49.500;7.764;2023-10-08T12:16:16;99360.97;;;22.19;75.61
7433;BME280;32233;49.500;7.764;2023-10-08T12:18:49;99360.59;;;22.10;77.61
7433;BME280;32233;49.500;7.764;2023-10-08T12:21:20;99359.66;;;22.21;76.47
7433;BME280;32233;49.500;7.764;2023-10-08T12:23:48;99355.31;;;22.20;76.78
7433;BME280;32233;49.500;7.764;2023-10-08T12:26:17;99358.91;;;22.04;77.19
7433;BME280;32233;49.500;7.764;2023-10-08T12:28:47;99364.84;;;21.79;77.49
7433;BME280;32233;49.500;7.764;2023-10-08T12:31:16;99361.25;;;21.68;79.78
7433;BME280;32233;49.500;7.764;2023-10-08T12:33:43;99361.09;;;21.80;79.14
7433;BME280;32233;49.500;7.764;2023-10-08T12:36:12;99356.09;;;21.89;77.59
7433;BME280;32233;49.500;7.764;2023-10-08T12:38:43;99354.59;;;22.03;79.63
7433;BME280;32233;49.500;7.764;2023-10-08T12:41:11;99361.13;;;22.12;75.01
7433;BME280;32233;49.500;7.764;2023-10-08T12:43:42;99355.09;;;22.22;79.09
7433;BME280;32233;49.500;7.764;2023-10-08T12:46:09;99355.44;;;22.31;78.18
7433;BME280;32233;49.500;7.764;2023-10-08T12:48:45;99356.81;;;22.33;76.33
7433;BME280;32233;49.500;7.764;2023-10-08T12:51:15;99349.09;;;22.15;74.11
7433;BME280;32233;49.500;7.764;2023-10-08T12:53:41;99350.00;;;22.25;76.96
7433;BME280;32233;49.500;7.764;2023-10-08T12:56:17;99347.00;;;22.22;74.13
7433;BME280;32233;49.500;7.764;2023-10-08T12:58:48;99340.47;;;21.91;76.88
7433;BME280;32233;49.500;7.764;2023-10-08T13:01:15;99331.56;;;21.63;78.82
7433;BME280;32233;49.500;7.764;2023-10-08T13:03:45;99333.06;;;21.54;80.66
7433;BME280;32233;49.500;7.764;2023-10-08T13:06:19;99341.22;;;21.37;83.08
7433;BME280;32233;49.500;7.764;2023-10-08T13:08:49;99338.22;;;21.34;80.14
7433;BME280;32233;49.500;7.764;2023-10-08T13:11:20;99350.19;;;21.26;81.41
7433;BME280;32233;49.500;7.764;2023-10-08T13:13:52;99345.00;;;21.19;80.95
7433;BME280;32233;49.500;7.764;2023-10-08T13:16:19;99345.03;;;21.02;81.64
7433;BME280;32233;49.500;7.764;2023-10-08T13:18:48;99340.28;;;21.10;82.22
7433;BME280;32233;49.500;7.764;2023-10-08T13:21:16;99334.31;;;21.24;80.63
7433;BME280;32233;49.500;7.764;2023-10-08T13:23:42;99333.16;;;21.37;80.96
7433;BME280;32233;49.500;7.764;2023-10-08T13:26:09;99335.78;;;21.32;83.31
7433;BME280;32233;49.500;7.764;2023-10-08T13:28:36;99335.53;;;21.17;80.89
7433;BME280;32233;49.500;7.764;2023-10-08T13:31:03;99334.78;;;21.21;80.29
7433;BME280;32233;49.500;7.764;2023-10-08T13:33:40;99332.44;;;21.47;80.58
7433;BME280;32233;49.500;7.764;2023-10-08T13:36:10;99328.88;;;21.63;80.84
7433;BME280;32233;49.500;7.764;2023-10-08T13:38:45;99325.31;;;21.58;80.40
7433;BME280;32233;49.500;7.764;2023-10-08T13:41:13;99324.69;;;21.50;80.06
7433;BME280;32233;49.500;7.764;2023-10-08T13:43:45;99326.47;;;21.40;82.30
7433;BME280;32233;49.500;7.764;2023-10-08T13:46:14;99314.28;;;21.32;82.64
7433;BME280;32233;49.500;7.764;2023-10-08T13:48:42;99319.66;;;21.32;84.18